sensor_id;sensor_type;location;lat;lon;timestamp;P1;durP1;ratioP1;P2;durP2;ratioP2
75234;SDS011;63817;51.228;-1.472;2023-08-17T00:01:38;6.80;;;4.05;;
75234;SDS011;63817;51.228;-1.472;2023-08-17T00:04:03;9.18;;;4.30;;
75234;SDS011;63817;51.228;-1.472;2023-08-17T00:06:28;10.63;;;4.20;;
75234;SDS011;63817;51.228;-1.472;2023-08-17T00:08:54;8.63;;;4.40;;
75234;SDS011;63817;51.228;-1.472;2023-08-17T00:11:19;11.25;;;4.32;;
75234;SDS011;63817;51.228;-1.472;2023-08-17T00:13:45;10.75;;;4.43;;
75234;SDS011;63817;51.228;-1.472;2023-08-17T00:16:10;9.27;;;4.40;;
75234;SDS011;63817;51.228;-1.472;2023-08-17T00:18:35;13.52;;;4.60;;
75234;SDS011;63817;51.228;-1.472;2023-08-17T00:21:01;7.28;;;4.65;;
75234;SDS011;63817;51.228;-1.472;2023-08-17T00:23:26;12.45;;;4.47;;
75234;SDS011;63817;51.228;-1.472;2023-08-17T00:25:52;10.05;;;5.10;;
75234;SDS011;63817;51.228;-1.472;2023-08-17T00:28:18;7.10;;;4.57;;
75234;SDS011;63817;51.228;-1.472;2023-08-17T00:30:43;8.95;;;4.50;;
75234;SDS011;63817;51.228;-1.472;2023-08-17T00:33:10;9.23;;;4.60;;
75234;SDS011;63817;51.228;-1.472;2023-08-17T00:35:35;7.97;;;4.90;;
75234;SDS011;63817;51.228;-1.472;2023-08-17T00:38:00;8.00;;;4.32;;
75234;SDS011;63817;51.228;-1.472;2023-08-17T00:40:26;6.70;;;4.70;;
75234;SDS011;63817;51.228;-1.472;2023-08-17T00:42:51;7.18;;;4.30;;
75234;SDS011;63817;51.228;-1.472;2023-08-17T00:45:17;9.70;;;4.93;;
75234;SDS011;63817;51.228;-1.472;2023-08-17T00:47:44;9.35;;;4.72;;
75234;SDS011;63817;51.228;-1.472;2023-08-17T00:50:09;9.35;;;4.07;;
75234;SDS011;63817;51.228;-1.472;2023-08-17T00:52:35;7.85;;;3.88;;
75234;SDS011;63817;51.228;-1.472;2023-08-17T00:55:01;10.27;;;4.40;;
75234;SDS011;63817;51.228;-1.472;2023-08-17T00:57:27;11.73;;;4.95;;
75234;SDS011;63817;51.228;-1.472;2023-08-17T00:59:53;6.40;;;4.53;;
75234;SDS011;63817;51.228;-1.472;2023-08-17T01:02:19;10.73;;;4.95;;
75234;SDS011;63817;51.228;-1.472;2023-08-17T01:04:44;9.23;;;5.47;;
75234;SDS011;63817;51.228;-1.472;2023-08-17T01:07:10;9.35;;;4.80;;
75234;SDS011;63817;51.228;-1.472;2023-08-17T01:09:35;10.60;;;5.35;;
75234;SDS011;63817;51.228;-1.472;2023-08-17T01:20:10;10.38;;;5.60;;
75234;SDS011;63817;51.228;-1.472;2023-08-17T01:22:37;12.52;;;5.93;;
75234;SDS011;63817;51.228;-1.472;2023-08-17T01:25:04;14.10;;;6.28;;
75234;SDS011;63817;51.228;-1.472;2023-08-17T01:27:33;15.55;;;7.10;;
75234;SDS011;63817;51.228;-1.472;2023-08-17T01:30:02;13.35;;;6.78;;
75234;SDS011;63817;51.228;-1.472;2023-08-17T01:32:37;12.60;;;7.57;;
75234;SDS011;63817;51.228;-1.472;2023-08-17T01:40:15;14.40;;;8.00;;
75234;SDS011;63817;51.228;-1.472;2023-08-17T01:42:42;21.27;;;9.10;;
75234;SDS011;63817;51.228;-1.472;2023-08-17T01:45:08;17.20;;;9.10;;
75234;SDS011;63817;51.228;-1.472;2023-08-17T01:47:34;21.48;;;9.95;;
75234;SDS011;63817;51.228;-1.472;2023-08-17T01:50:00;15.45;;;10.05;;
75234;SDS011;63817;51.228;-1.472;2023-08-17T01:52:28;33.92;;;12.70;;
75234;SDS011;63817;51.228;-1.472;2023-08-17T01:54:54;23.02;;;12.27;;
75234;SDS011;63817;51.228;-1.472;2023-08-17T01:57:19;23.75;;;12.50;;
75234;SDS011;63817;51.228;-1.472;2023-08-17T01:59:45;23.55;;;14.55;;
75234;SDS011;63817;51.228;-1.472;2023-08-17T02:02:10;23.42;;;14.40;;
75234;SDS011;63817;51.228;-1.472;2023-08-17T02:04:36;31.50;;;15.48;;
75234;SDS011;63817;51.228;-1.472;2023-08-17T02:07:02;33.85;;;17.05;;
75234;SDS011;63817;51.228;-1.472;2023-08-17T02:09:28;33.40;;;19.02;;
75234;SDS011;63817;51.228;-1.472;2023-08-17T02:11:53;41.42;;;21.85;;
75234;SDS011;63817;51.228;-1.472;2023-08-17T02:14:19;44.28;;;24.77;;
75234;SDS011;63817;51.228;-1.472;2023-08-17T02:16:44;51.15;;;25.48;;
75234;SDS011;63817;51.228;-1.472;2023-08-17T02:19:09;45.67;;;24.15;;
75234;SDS011;63817;51.228;-1.472;2023-08-17T02:21:35;50.20;;;26.08;;
75234;SDS011;63817;51.228;-1.472;2023-08-17T02:24:00;43.17;;;24.95;;
75234;SDS011;63817;51.228;-1.472;2023-08-17T02:26:25;54.03;;;27.33;;
75234;SDS011;63817;51.228;-1.472;2023-08-17T02:28:51;54.75;;;26.95;;
75234;SDS011;63817;51.228;-1.472;2023-08-17T02:31:16;58.10;;;28.98;;
75234;SDS011;63817;51.228;-1.472;2023-08-17T02:33:42;56.80;;;28.52;;
75234;SDS011;63817;51.228;-1.472;2023-08-17T02:36:07;60.08;;;29.55;;
75234;SDS011;63817;51.228;-1.472;2023-08-17T02:38:32;57.38;;;28.15;;
75234;SDS011;63817;51.228;-1.472;2023-08-17T02:40:58;49.83;;;28.33;;
75234;SDS011;63817;51.228;-1.472;2023-08-17T02:43:23;57.10;;;29.80;;
75234;SDS011;63817;51.228;-1.472;2023-08-17T02:45:49;52.17;;;28.40;;
75234;SDS011;63817;51.228;-1.472;2023-08-17T02:48:14;58.45;;;28.10;;
75234;SDS011;63817;51.228;-1.472;2023-08-17T02:50:39;56.30;;;27.63;;
75234;SDS011;63817;51.228;-1.472;2023-08-17T02:53:05;52.97;;;28.08;;
75234;SDS011;63817;51.228;-1.472;2023-08-17T02:55:30;52.22;;;29.30;;
75234;SDS011;63817;51.228;-1.472;2023-08-17T02:57:55;55.97;;;32.03;;
75234;SDS011;63817;51.228;-1.472;2023-08-17T03:00:21;52.90;;;30.88;;
75234;SDS011;63817;51.228;-1.472;2023-08-17T03:02:46;59.83;;;31.10;;
75234;SDS011;63817;51.228;-1.472;2023-08-17T03:05:12;60.95;;;31.20;;
75234;SDS011;63817;51.228;-1.472;2023-08-17T03:07:37;60.83;;;30.40;;
75234;SDS011;63817;51.228;-1.472;2023-08-17T03:10:03;55.03;;;28.77;;
75234;SDS011;63817;51.228;-1.472;2023-08-17T03:12:28;53.40;;;29.70;;
75234;SDS011;63817;51.228;-1.472;2023-08-17T03:14:54;64.80;;;31.10;;
75234;SDS011;63817;51.228;-1.472;2023-08-17T03:17:19;52.30;;;29.90;;
75234;SDS011;63817;51.228;-1.472;2023-08-17T03:19:44;58.53;;;32.70;;
75234;SDS011;63817;51.228;-1.472;2023-08-17T03:22:10;56.40;;;29.02;;
75234;SDS011;63817;51.228;-1.472;2023-08-17T03:24:35;59.03;;;31.67;;
75234;SDS011;63817;51.228;-1.472;2023-08-17T03:27:00;53.45;;;29.48;;
75234;SDS011;63817;51.228;-1.472;2023-08-17T03:29:26;58.72;;;31.40;;
75234;SDS011;63817;51.228;-1.472;2023-08-17T03:31:52;64.72;;;31.23;;
75234;SDS011;63817;51.228;-1.472;2023-08-17T03:34:17;62.28;;;32.30;;
75234;SDS011;63817;51.228;-1.472;2023-08-17T03:36:43;59.33;;;30.85;;
75234;SDS011;63817;51.228;-1.472;2023-08-17T03:39:08;58.47;;;31.33;;
75234;SDS011;63817;51.228;-1.472;2023-08-17T03:41:33;54.53;;;29.98;;
75234;SDS011;63817;51.228;-1.472;2023-08-17T03:44:01;58.97;;;29.85;;
75234;SDS011;63817;51.228;-1.472;2023-08-17T03:46:27;63.28;;;29.35;;
75234;SDS011;63817;51.228;-1.472;2023-08-17T03:48:53;56.88;;;29.65;;
75234;SDS011;63817;51.228;-1.472;2023-08-17T03:51:18;55.72;;;28.30;;
75234;SDS011;63817;51.228;-1.472;2023-08-17T03:53:44;63.67;;;31.15;;
75234;SDS011;63817;51.228;-1.472;2023-08-17T03:56:09;57.20;;;29.50;;
75234;SDS011;63817;51.228;-1.472;2023-08-17T03:58:34;53.45;;;28.73;;
75234;SDS011;63817;51.228;-1.472;2023-08-17T04:01:00;55.25;;;28.55;;
75234;SDS011;63817;51.228;-1.472;2023-08-17T04:03:26;66.15;;;30.20;;
75234;SDS011;63817;51.228;-1.472;2023-08-17T04:05:52;56.60;;;29.90;;
75234;SDS011;63817;51.228;-1.472;2023-08-17T04:08:17;56.20;;;29.13;;
75234;SDS011;63817;51.228;-1.472;2023-08-17T04:10:42;59.30;;;29.60;;
75234;SDS011;63817;51.228;-1.472;2023-08-17T04:13:08;54.67;;;29.67;;
75234;SDS011;63817;51.228;-1.472;2023-08-17T04:15:33;60.25;;;29.50;;
75234;SDS011;63817;51.228;-1.472;2023-08-17T04:17:59;58.53;;;29.15;;
75234;SDS011;63817;51.228;-1.472;2023-08-17T04:20:24;64.68;;;28.55;;
75234;SDS011;63817;51.228;-1.472;2023-08-17T04:22:50;55.38;;;29.48;;
75234;SDS011;63817;51.228;-1.472;2023-08-17T04:25:16;63.25;;;30.55;;
75234;SDS011;63817;51.228;-1.472;2023-08-17T04:27:41;64.15;;;30.33;;
75234;SDS011;63817;51.228;-1.472;2023-08-17T04:30:07;60.50;;;31.95;;
75234;SDS011;63817;51.228;-1.472;2023-08-17T04:32:33;60.08;;;31.08;;
75234;SDS011;63817;51.228;-1.472;2023-08-17T04:34:59;63.72;;;31.92;;
75234;SDS011;63817;51.228;-1.472;2023-08-17T04:37:24;60.05;;;32.63;;
75234;SDS011;63817;51.228;-1.472;2023-08-17T04:39:49;58.95;;;30.70;;
75234;SDS011;63817;51.228;-1.472;2023-08-17T04:42:16;60.58;;;31.60;;
75234;SDS011;63817;51.228;-1.472;2023-08-17T04:44:41;69.20;;;33.50;;
75234;SDS011;63817;51.228;-1.472;2023-08-17T04:47:07;55.42;;;32.33;;
75234;SDS011;63817;51.228;-1.472;2023-08-17T04:49:32;58.08;;;30.83;;
75234;SDS011;63817;51.228;-1.472;2023-08-17T04:51:58;52.65;;;32.42;;
75234;SDS011;63817;51.228;-1.472;2023-08-17T04:54:23;61.63;;;31.45;;
75234;SDS011;63817;51.228;-1.472;2023-08-17T04:56:48;58.08;;;32.78;;
75234;SDS011;63817;51.228;-1.472;2023-08-17T04:59:14;66.03;;;32.70;;
75234;SDS011;63817;51.228;-1.472;2023-08-17T05:01:39;65.28;;;32.67;;
75234;SDS011;63817;51.228;-1.472;2023-08-17T05:04:05;60.40;;;32.22;;
75234;SDS011;63817;51.228;-1.472;2023-08-17T05:06:30;66.78;;;33.90;;
75234;SDS011;63817;51.228;-1.472;2023-08-17T05:08:56;57.65;;;32.97;;
75234;SDS011;63817;51.228;-1.472;2023-08-17T05:11:22;67.82;;;32.63;;
75234;SDS011;63817;51.228;-1.472;2023-08-17T05:13:47;58.85;;;32.55;;
75234;SDS011;63817;51.228;-1.472;2023-08-17T05:16:13;77.90;;;34.15;;
75234;SDS011;63817;51.228;-1.472;2023-08-17T05:18:39;60.60;;;31.88;;
75234;SDS011;63817;51.228;-1.472;2023-08-17T05:21:04;64.22;;;33.00;;
75234;SDS011;63817;51.228;-1.472;2023-08-17T05:23:29;57.58;;;31.65;;
75234;SDS011;63817;51.228;-1.472;2023-08-17T05:25:55;64.43;;;32.40;;
75234;SDS011;63817;51.228;-1.472;2023-08-17T05:28:20;61.92;;;32.17;;
75234;SDS011;63817;51.228;-1.472;2023-08-17T05:30:46;61.50;;;32.55;;
75234;SDS011;63817;51.228;-1.472;2023-08-17T05:33:12;59.05;;;30.63;;
75234;SDS011;63817;51.228;-1.472;2023-08-17T05:35:37;65.85;;;32.67;;
75234;SDS011;63817;51.228;-1.472;2023-08-17T05:38:03;56.08;;;30.95;;
75234;SDS011;63817;51.228;-1.472;2023-08-17T05:40:32;51.95;;;30.45;;
75234;SDS011;63817;51.228;-1.472;2023-08-17T05:42:57;63.65;;;31.33;;
75234;SDS011;63817;51.228;-1.472;2023-08-17T05:45:22;56.17;;;29.85;;
75234;SDS011;63817;51.228;-1.472;2023-08-17T05:47:48;58.72;;;31.98;;
75234;SDS011;63817;51.228;-1.472;2023-08-17T05:50:13;51.35;;;30.05;;
75234;SDS011;63817;51.228;-1.472;2023-08-17T05:52:40;46.13;;;29.73;;
75234;SDS011;63817;51.228;-1.472;2023-08-17T05:55:05;48.60;;;29.75;;
75234;SDS011;63817;51.228;-1.472;2023-08-17T05:57:31;49.45;;;28.33;;
75234;SDS011;63817;51.228;-1.472;2023-08-17T05:59:56;46.47;;;27.15;;
75234;SDS011;63817;51.228;-1.472;2023-08-17T06:02:22;55.10;;;27.85;;
75234;SDS011;63817;51.228;-1.472;2023-08-17T06:04:47;51.70;;;28.67;;
75234;SDS011;63817;51.228;-1.472;2023-08-17T06:07:13;50.42;;;28.73;;
75234;SDS011;63817;51.228;-1.472;2023-08-17T06:09:38;53.30;;;29.58;;
75234;SDS011;63817;51.228;-1.472;2023-08-17T06:12:03;56.10;;;28.10;;
75234;SDS011;63817;51.228;-1.472;2023-08-17T06:14:29;47.70;;;28.63;;
75234;SDS011;63817;51.228;-1.472;2023-08-17T06:16:55;59.05;;;29.70;;
75234;SDS011;63817;51.228;-1.472;2023-08-17T06:19:20;46.80;;;27.50;;
75234;SDS011;63817;51.228;-1.472;2023-08-17T06:21:45;51.58;;;28.30;;
75234;SDS011;63817;51.228;-1.472;2023-08-17T06:24:11;48.72;;;26.35;;
75234;SDS011;63817;51.228;-1.472;2023-08-17T06:26:36;46.53;;;28.13;;
75234;SDS011;63817;51.228;-1.472;2023-08-17T06:29:01;51.80;;;27.95;;
75234;SDS011;63817;51.228;-1.472;2023-08-17T06:31:27;48.10;;;27.27;;
75234;SDS011;63817;51.228;-1.472;2023-08-17T06:33:53;50.38;;;27.58;;
75234;SDS011;63817;51.228;-1.472;2023-08-17T06:36:19;46.70;;;27.60;;
75234;SDS011;63817;51.228;-1.472;2023-08-17T06:38:45;41.38;;;25.63;;
75234;SDS011;63817;51.228;-1.472;2023-08-17T06:41:10;42.45;;;25.05;;
75234;SDS011;63817;51.228;-1.472;2023-08-17T06:43:36;47.00;;;24.25;;
75234;SDS011;63817;51.228;-1.472;2023-08-17T06:46:01;43.25;;;23.95;;
75234;SDS011;63817;51.228;-1.472;2023-08-17T06:48:27;44.88;;;24.15;;
75234;SDS011;63817;51.228;-1.472;2023-08-17T06:50:53;43.92;;;23.73;;
75234;SDS011;63817;51.228;-1.472;2023-08-17T06:53:18;49.60;;;24.77;;
75234;SDS011;63817;51.228;-1.472;2023-08-17T06:55:43;40.25;;;24.73;;
75234;SDS011;63817;51.228;-1.472;2023-08-17T06:58:09;44.38;;;25.60;;
75234;SDS011;63817;51.228;-1.472;2023-08-17T07:00:34;49.38;;;26.95;;
75234;SDS011;63817;51.228;-1.472;2023-08-17T07:03:00;36.88;;;25.30;;
75234;SDS011;63817;51.228;-1.472;2023-08-17T07:05:26;39.50;;;26.13;;
75234;SDS011;63817;51.228;-1.472;2023-08-17T07:07:51;46.20;;;26.88;;
75234;SDS011;63817;51.228;-1.472;2023-08-17T07:10:18;43.05;;;28.25;;
75234;SDS011;63817;51.228;-1.472;2023-08-17T07:12:43;45.05;;;28.33;;
75234;SDS011;63817;51.228;-1.472;2023-08-17T07:15:09;40.78;;;27.33;;
75234;SDS011;63817;51.228;-1.472;2023-08-17T07:17:35;43.15;;;26.73;;
75234;SDS011;63817;51.228;-1.472;2023-08-17T07:20:01;37.92;;;25.15;;
75234;SDS011;63817;51.228;-1.472;2023-08-17T07:22:27;38.35;;;24.73;;
75234;SDS011;63817;51.228;-1.472;2023-08-17T07:24:53;43.60;;;25.38;;
75234;SDS011;63817;51.228;-1.472;2023-08-17T07:27:18;42.33;;;25.52;;
75234;SDS011;63817;51.228;-1.472;2023-08-17T07:29:43;39.70;;;23.48;;
75234;SDS011;63817;51.228;-1.472;2023-08-17T07:32:09;40.88;;;24.40;;
75234;SDS011;63817;51.228;-1.472;2023-08-17T07:34:35;37.67;;;24.27;;
75234;SDS011;63817;51.228;-1.472;2023-08-17T07:37:03;36.05;;;22.67;;
75234;SDS011;63817;51.228;-1.472;2023-08-17T07:39:29;40.42;;;23.15;;
75234;SDS011;63817;51.228;-1.472;2023-08-17T07:41:55;37.03;;;23.05;;
75234;SDS011;63817;51.228;-1.472;2023-08-17T07:44:20;37.28;;;23.63;;
75234;SDS011;63817;51.228;-1.472;2023-08-17T07:46:45;41.22;;;23.30;;
75234;SDS011;63817;51.228;-1.472;2023-08-17T07:49:11;37.28;;;21.58;;
75234;SDS011;63817;51.228;-1.472;2023-08-17T07:51:36;35.55;;;22.98;;
75234;SDS011;63817;51.228;-1.472;2023-08-17T07:54:02;34.65;;;21.20;;
75234;SDS011;63817;51.228;-1.472;2023-08-17T07:56:27;35.33;;;22.05;;
75234;SDS011;63817;51.228;-1.472;2023-08-17T07:58:53;32.05;;;19.92;;
75234;SDS011;63817;51.228;-1.472;2023-08-17T08:01:19;35.45;;;20.80;;
75234;SDS011;63817;51.228;-1.472;2023-08-17T08:03:45;24.92;;;17.67;;
75234;SDS011;63817;51.228;-1.472;2023-08-17T08:06:10;31.38;;;18.00;;
75234;SDS011;63817;51.228;-1.472;2023-08-17T08:08:37;27.75;;;17.27;;
75234;SDS011;63817;51.228;-1.472;2023-08-17T08:11:02;26.60;;;16.83;;
75234;SDS011;63817;51.228;-1.472;2023-08-17T08:13:29;30.63;;;16.63;;
75234;SDS011;63817;51.228;-1.472;2023-08-17T08:15:55;29.90;;;15.13;;
75234;SDS011;63817;51.228;-1.472;2023-08-17T08:18:20;20.42;;;13.70;;
75234;SDS011;63817;51.228;-1.472;2023-08-17T08:20:46;26.27;;;14.32;;
75234;SDS011;63817;51.228;-1.472;2023-08-17T08:23:11;20.48;;;13.82;;
75234;SDS011;63817;51.228;-1.472;2023-08-17T08:25:37;22.42;;;12.90;;
75234;SDS011;63817;51.228;-1.472;2023-08-17T08:28:02;19.83;;;12.25;;
75234;SDS011;63817;51.228;-1.472;2023-08-17T08:30:28;17.98;;;11.80;;
75234;SDS011;63817;51.228;-1.472;2023-08-17T08:32:53;21.35;;;11.85;;
75234;SDS011;63817;51.228;-1.472;2023-08-17T08:35:22;17.63;;;11.75;;
75234;SDS011;63817;51.228;-1.472;2023-08-17T08:37:49;24.65;;;11.85;;
75234;SDS011;63817;51.228;-1.472;2023-08-17T08:40:15;19.40;;;11.52;;
75234;SDS011;63817;51.228;-1.472;2023-08-17T08:42:42;18.88;;;9.90;;
75234;SDS011;63817;51.228;-1.472;2023-08-17T08:45:07;21.40;;;9.88;;
75234;SDS011;63817;51.228;-1.472;2023-08-17T08:47:34;17.27;;;9.85;;
75234;SDS011;63817;51.228;-1.472;2023-08-17T08:50:00;18.63;;;8.48;;
75234;SDS011;63817;51.228;-1.472;2023-08-17T08:52:34;17.55;;;9.52;;
75234;SDS011;63817;51.228;-1.472;2023-08-17T08:55:05;15.70;;;9.23;;
75234;SDS011;63817;51.228;-1.472;2023-08-17T08:57:52;16.05;;;7.40;;
75234;SDS011;63817;51.228;-1.472;2023-08-17T09:00:17;13.93;;;8.13;;
75234;SDS011;63817;51.228;-1.472;2023-08-17T09:02:43;16.77;;;7.93;;
75234;SDS011;63817;51.228;-1.472;2023-08-17T09:05:10;13.73;;;7.43;;
75234;SDS011;63817;51.228;-1.472;2023-08-17T09:07:36;12.32;;;7.22;;
75234;SDS011;63817;51.228;-1.472;2023-08-17T09:10:02;14.90;;;7.13;;
75234;SDS011;63817;51.228;-1.472;2023-08-17T09:12:28;17.17;;;7.18;;
75234;SDS011;63817;51.228;-1.472;2023-08-17T09:14:54;17.17;;;6.97;;
75234;SDS011;63817;51.228;-1.472;2023-08-17T09:17:22;15.23;;;6.22;;
75234;SDS011;63817;51.228;-1.472;2023-08-17T09:19:51;13.80;;;6.18;;
75234;SDS011;63817;51.228;-1.472;2023-08-17T09:22:24;17.30;;;6.47;;
75234;SDS011;63817;51.228;-1.472;2023-08-17T09:24:50;18.20;;;6.47;;
75234;SDS011;63817;51.228;-1.472;2023-08-17T09:27:16;14.52;;;6.38;;
75234;SDS011;63817;51.228;-1.472;2023-08-17T09:29:44;13.82;;;6.18;;
75234;SDS011;63817;51.228;-1.472;2023-08-17T09:32:11;11.20;;;6.22;;
75234;SDS011;63817;51.228;-1.472;2023-08-17T09:34:36;13.80;;;6.32;;
75234;SDS011;63817;51.228;-1.472;2023-08-17T09:37:05;15.60;;;5.80;;
75234;SDS011;63817;51.228;-1.472;2023-08-17T09:39:31;13.27;;;5.88;;
75234;SDS011;63817;51.228;-1.472;2023-08-17T09:41:57;13.50;;;6.05;;
75234;SDS011;63817;51.228;-1.472;2023-08-17T09:44:22;12.60;;;4.90;;
75234;SDS011;63817;51.228;-1.472;2023-08-17T09:46:48;10.73;;;5.47;;
75234;SDS011;63817;51.228;-1.472;2023-08-17T09:49:13;10.48;;;4.18;;
75234;SDS011;63817;51.228;-1.472;2023-08-17T09:51:42;11.70;;;5.28;;
75234;SDS011;63817;51.228;-1.472;2023-08-17T09:54:09;10.60;;;4.72;;
75234;SDS011;63817;51.228;-1.472;2023-08-17T09:56:45;9.50;;;4.38;;
75234;SDS011;63817;51.228;-1.472;2023-08-17T09:59:10;9.50;;;4.60;;
75234;SDS011;63817;51.228;-1.472;2023-08-17T10:01:36;10.75;;;4.50;;
75234;SDS011;63817;51.228;-1.472;2023-08-17T10:04:01;13.88;;;4.53;;
75234;SDS011;63817;51.228;-1.472;2023-08-17T10:06:27;8.57;;;4.20;;
75234;SDS011;63817;51.228;-1.472;2023-08-17T10:08:55;8.70;;;4.53;;
75234;SDS011;63817;51.228;-1.472;2023-08-17T10:11:22;5.70;;;3.72;;
75234;SDS011;63817;51.228;-1.472;2023-08-17T10:16:31;10.43;;;4.22;;
75234;SDS011;63817;51.228;-1.472;2023-08-17T10:21:53;8.27;;;3.28;;
75234;SDS011;63817;51.228;-1.472;2023-08-17T10:24:21;8.30;;;3.33;;
75234;SDS011;63817;51.228;-1.472;2023-08-17T10:26:46;7.18;;;3.75;;
75234;SDS011;63817;51.228;-1.472;2023-08-17T10:29:12;5.30;;;3.55;;
75234;SDS011;63817;51.228;-1.472;2023-08-17T10:31:38;6.78;;;3.53;;
75234;SDS011;63817;51.228;-1.472;2023-08-17T10:34:04;7.65;;;3.35;;
75234;SDS011;63817;51.228;-1.472;2023-08-17T10:36:30;8.32;;;3.05;;
75234;SDS011;63817;51.228;-1.472;2023-08-17T10:41:47;8.35;;;3.13;;
75234;SDS011;63817;51.228;-1.472;2023-08-17T10:44:13;10.48;;;3.33;;
75234;SDS011;63817;51.228;-1.472;2023-08-17T10:46:38;7.35;;;4.15;;
75234;SDS011;63817;51.228;-1.472;2023-08-17T10:49:06;10.25;;;3.88;;
75234;SDS011;63817;51.228;-1.472;2023-08-17T10:51:32;5.80;;;3.15;;
75234;SDS011;63817;51.228;-1.472;2023-08-17T10:54:01;6.97;;;3.72;;
75234;SDS011;63817;51.228;-1.472;2023-08-17T10:56:27;12.18;;;3.90;;
75234;SDS011;63817;51.228;-1.472;2023-08-17T10:58:54;9.35;;;3.40;;
75234;SDS011;63817;51.228;-1.472;2023-08-17T11:01:35;10.32;;;3.53;;
75234;SDS011;63817;51.228;-1.472;2023-08-17T11:04:19;8.95;;;3.28;;
75234;SDS011;63817;51.228;-1.472;2023-08-17T11:06:45;8.32;;;3.08;;
75234;SDS011;63817;51.228;-1.472;2023-08-17T11:09:11;11.32;;;3.97;;
75234;SDS011;63817;51.228;-1.472;2023-08-17T11:11:37;8.43;;;3.08;;
75234;SDS011;63817;51.228;-1.472;2023-08-17T11:14:02;7.22;;;3.00;;
75234;SDS011;63817;51.228;-1.472;2023-08-17T11:16:28;9.10;;;3.33;;
75234;SDS011;63817;51.228;-1.472;2023-08-17T11:18:53;11.65;;;3.50;;
75234;SDS011;63817;51.228;-1.472;2023-08-17T11:21:22;7.18;;;2.88;;
75234;SDS011;63817;51.228;-1.472;2023-08-17T11:23:48;7.68;;;3.30;;
75234;SDS011;63817;51.228;-1.472;2023-08-17T11:26:17;8.75;;;3.35;;
75234;SDS011;63817;51.228;-1.472;2023-08-17T11:28:42;7.70;;;3.85;;
75234;SDS011;63817;51.228;-1.472;2023-08-17T11:31:10;6.45;;;3.08;;
75234;SDS011;63817;51.228;-1.472;2023-08-17T11:33:37;7.50;;;2.70;;
75234;SDS011;63817;51.228;-1.472;2023-08-17T11:36:04;9.65;;;3.00;;
75234;SDS011;63817;51.228;-1.472;2023-08-17T11:38:31;7.70;;;2.45;;
75234;SDS011;63817;51.228;-1.472;2023-08-17T11:40:58;9.07;;;2.28;;
75234;SDS011;63817;51.228;-1.472;2023-08-17T11:43:24;7.55;;;2.78;;
75234;SDS011;63817;51.228;-1.472;2023-08-17T11:45:50;5.53;;;2.55;;
75234;SDS011;63817;51.228;-1.472;2023-08-17T11:48:18;8.07;;;2.67;;
75234;SDS011;63817;51.228;-1.472;2023-08-17T11:50:44;4.18;;;2.30;;
75234;SDS011;63817;51.228;-1.472;2023-08-17T11:53:10;6.93;;;2.38;;
75234;SDS011;63817;51.228;-1.472;2023-08-17T11:55:35;7.95;;;2.35;;
75234;SDS011;63817;51.228;-1.472;2023-08-17T11:58:02;9.88;;;2.40;;
75234;SDS011;63817;51.228;-1.472;2023-08-17T12:00:27;8.57;;;2.50;;
75234;SDS011;63817;51.228;-1.472;2023-08-17T12:02:59;10.33;;;2.60;;
75234;SDS011;63817;51.228;-1.472;2023-08-17T12:05:25;9.65;;;2.78;;
75234;SDS011;63817;51.228;-1.472;2023-08-17T12:07:52;4.20;;;2.33;;
75234;SDS011;63817;51.228;-1.472;2023-08-17T12:10:18;5.45;;;2.38;;
75234;SDS011;63817;51.228;-1.472;2023-08-17T12:12:50;6.55;;;2.60;;
75234;SDS011;63817;51.228;-1.472;2023-08-17T12:15:16;6.53;;;2.30;;
75234;SDS011;63817;51.228;-1.472;2023-08-17T12:17:45;11.57;;;2.45;;
75234;SDS011;63817;51.228;-1.472;2023-08-17T12:20:18;3.00;;;1.73;;
75234;SDS011;63817;51.228;-1.472;2023-08-17T12:22:44;2.58;;;1.92;;
75234;SDS011;63817;51.228;-1.472;2023-08-17T12:25:13;7.15;;;2.10;;
75234;SDS011;63817;51.228;-1.472;2023-08-17T12:27:39;7.15;;;2.10;;
75234;SDS011;63817;51.228;-1.472;2023-08-17T12:30:05;4.68;;;2.00;;
75234;SDS011;63817;51.228;-1.472;2023-08-17T12:32:37;7.18;;;1.95;;
75234;SDS011;63817;51.228;-1.472;2023-08-17T12:35:02;4.70;;;1.40;;
75234;SDS011;63817;51.228;-1.472;2023-08-17T12:37:28;2.90;;;1.50;;
75234;SDS011;63817;51.228;-1.472;2023-08-17T12:39:54;3.58;;;1.70;;
75234;SDS011;63817;51.228;-1.472;2023-08-17T12:42:19;7.25;;;1.75;;
75234;SDS011;63817;51.228;-1.472;2023-08-17T12:44:45;7.72;;;1.70;;
75234;SDS011;63817;51.228;-1.472;2023-08-17T12:47:10;7.38;;;1.77;;
75234;SDS011;63817;51.228;-1.472;2023-08-17T12:49:36;4.38;;;1.80;;
75234;SDS011;63817;51.228;-1.472;2023-08-17T12:52:01;3.85;;;1.85;;
75234;SDS011;63817;51.228;-1.472;2023-08-17T12:54:27;4.32;;;1.80;;
75234;SDS011;63817;51.228;-1.472;2023-08-17T12:56:52;6.43;;;1.92;;
75234;SDS011;63817;51.228;-1.472;2023-08-17T12:59:18;5.00;;;2.08;;
75234;SDS011;63817;51.228;-1.472;2023-08-17T13:01:43;6.88;;;2.15;;
75234;SDS011;63817;51.228;-1.472;2023-08-17T13:04:08;7.22;;;2.40;;
75234;SDS011;63817;51.228;-1.472;2023-08-17T13:06:34;8.93;;;2.65;;
75234;SDS011;63817;51.228;-1.472;2023-08-17T13:08:59;5.13;;;2.42;;
75234;SDS011;63817;51.228;-1.472;2023-08-17T13:11:24;8.55;;;2.20;;
75234;SDS011;63817;51.228;-1.472;2023-08-17T13:13:50;4.90;;;2.13;;
75234;SDS011;63817;51.228;-1.472;2023-08-17T13:16:15;5.55;;;1.98;;
75234;SDS011;63817;51.228;-1.472;2023-08-17T13:18:41;5.70;;;2.25;;
75234;SDS011;63817;51.228;-1.472;2023-08-17T13:21:06;7.30;;;2.35;;
75234;SDS011;63817;51.228;-1.472;2023-08-17T13:23:31;7.47;;;2.38;;
75234;SDS011;63817;51.228;-1.472;2023-08-17T13:25:57;6.47;;;2.00;;
75234;SDS011;63817;51.228;-1.472;2023-08-17T13:28:23;8.68;;;2.20;;
75234;SDS011;63817;51.228;-1.472;2023-08-17T13:30:48;7.30;;;2.30;;
75234;SDS011;63817;51.228;-1.472;2023-08-17T13:33:14;4.32;;;1.88;;
75234;SDS011;63817;51.228;-1.472;2023-08-17T13:35:41;5.88;;;2.50;;
75234;SDS011;63817;51.228;-1.472;2023-08-17T13:38:07;6.47;;;1.90;;
75234;SDS011;63817;51.228;-1.472;2023-08-17T13:40:32;7.95;;;2.72;;
75234;SDS011;63817;51.228;-1.472;2023-08-17T13:42:58;5.47;;;2.05;;
75234;SDS011;63817;51.228;-1.472;2023-08-17T13:45:25;10.18;;;1.90;;
75234;SDS011;63817;51.228;-1.472;2023-08-17T13:47:51;8.63;;;2.33;;
75234;SDS011;63817;51.228;-1.472;2023-08-17T13:50:16;8.27;;;2.33;;
75234;SDS011;63817;51.228;-1.472;2023-08-17T13:52:43;5.30;;;1.90;;
75234;SDS011;63817;51.228;-1.472;2023-08-17T13:55:09;5.22;;;2.08;;
75234;SDS011;63817;51.228;-1.472;2023-08-17T13:57:34;11.27;;;2.67;;
75234;SDS011;63817;51.228;-1.472;2023-08-17T13:59:59;6.50;;;1.88;;
75234;SDS011;63817;51.228;-1.472;2023-08-17T14:02:25;5.18;;;1.92;;
75234;SDS011;63817;51.228;-1.472;2023-08-17T14:04:50;3.72;;;1.50;;
75234;SDS011;63817;51.228;-1.472;2023-08-17T14:07:16;5.05;;;1.85;;
75234;SDS011;63817;51.228;-1.472;2023-08-17T14:09:41;9.88;;;2.20;;
75234;SDS011;63817;51.228;-1.472;2023-08-17T14:12:06;7.20;;;1.90;;
75234;SDS011;63817;51.228;-1.472;2023-08-17T14:14:32;8.43;;;2.10;;
75234;SDS011;63817;51.228;-1.472;2023-08-17T14:16:58;6.28;;;2.67;;
75234;SDS011;63817;51.228;-1.472;2023-08-17T14:19:23;11.30;;;2.20;;
75234;SDS011;63817;51.228;-1.472;2023-08-17T14:21:49;10.93;;;2.20;;
75234;SDS011;63817;51.228;-1.472;2023-08-17T14:24:14;9.00;;;2.42;;
75234;SDS011;63817;51.228;-1.472;2023-08-17T14:26:40;7.28;;;2.20;;
75234;SDS011;63817;51.228;-1.472;2023-08-17T14:29:05;8.85;;;2.30;;
75234;SDS011;63817;51.228;-1.472;2023-08-17T14:31:30;4.68;;;1.70;;
75234;SDS011;63817;51.228;-1.472;2023-08-17T14:33:56;11.00;;;2.35;;